createdAt,value
2018-05-27T00:01:19.042Z,15.98
2018-05-27T00:03:55.332Z,15.94
2018-05-27T00:06:23.900Z,15.88
2018-05-27T00:08:52.773Z,15.82
2018-05-27T00:11:21.232Z,15.81
2018-05-27T00:13:51.664Z,15.77
2018-05-27T00:16:19.881Z,15.77
2018-05-27T00:18:48.610Z,15.73
2018-05-27T00:21:17.705Z,15.72
2018-05-27T00:23:46.704Z,15.67
2018-05-27T00:26:15.004Z,15.65
2018-05-27T00:28:42.628Z,15.63
2018-05-27T00:31:10.487Z,15.59
2018-05-27T00:33:38.108Z,15.50
2018-05-27T00:36:06.133Z,15.42
2018-05-27T00:38:33.873Z,15.38
2018-05-27T00:41:02.370Z,15.37
2018-05-27T00:43:30.022Z,15.34
2018-05-27T00:45:57.619Z,15.34
2018-05-27T00:48:25.563Z,15.32
2018-05-27T00:50:53.781Z,15.29
2018-05-27T00:53:34.695Z,15.26
2018-05-27T00:56:03.153Z,15.24
2018-05-27T00:58:30.798Z,15.22
2018-05-27T01:00:58.438Z,15.21
2018-05-27T01:03:26.130Z,15.18
2018-05-27T01:05:54.320Z,15.17
2018-05-27T01:08:21.915Z,15.14
2018-05-27T01:10:50.654Z,15.14
2018-05-27T01:13:18.357Z,15.12
2018-05-27T01:15:47.701Z,15.11
2018-05-27T01:20:58.854Z,15.04
2018-05-27T01:23:27.462Z,15.02
2018-05-27T01:25:55.676Z,14.96
2018-05-27T01:28:23.601Z,14.94
2018-05-27T01:30:51.233Z,14.90
2018-05-27T01:33:18.867Z,14.83
2018-05-27T01:35:47.422Z,14.76
2018-05-27T01:38:15.073Z,14.70
2018-05-27T01:40:43.336Z,14.67
2018-05-27T01:43:12.077Z,14.65
2018-05-27T01:45:39.720Z,14.63
2018-05-27T01:48:07.306Z,14.58
2018-05-27T01:50:34.877Z,14.56
2018-05-27T01:53:03.023Z,14.53
2018-05-27T01:55:31.128Z,14.50
2018-05-27T02:00:25.658Z,14.43
2018-05-27T02:02:53.601Z,14.41
2018-05-27T02:05:21.779Z,14.41
2018-05-27T02:07:49.339Z,14.39
2018-05-27T02:10:17.935Z,14.36
2018-05-27T02:12:45.808Z,14.34
2018-05-27T02:15:17.202Z,14.30
2018-05-27T02:17:45.232Z,14.20
2018-05-27T02:20:13.649Z,14.17
2018-05-27T02:22:41.766Z,14.13
2018-05-27T02:25:10.006Z,14.09
2018-05-27T02:27:37.593Z,14.06
2018-05-27T02:30:05.203Z,14.03
2018-05-27T02:32:32.893Z,14.01
2018-05-27T02:35:01.308Z,13.99
2018-05-27T02:37:28.914Z,13.96
2018-05-27T02:39:56.623Z,13.95
2018-05-27T02:42:24.749Z,13.93
2018-05-27T02:44:52.360Z,13.92
2018-05-27T02:47:19.955Z,13.95
2018-05-27T02:49:47.776Z,14.00
2018-05-27T02:52:15.523Z,14.08
2018-05-27T02:54:44.335Z,14.16
2018-05-27T02:57:11.907Z,14.19
2018-05-27T02:59:39.988Z,14.28
2018-05-27T03:02:07.647Z,14.36
2018-05-27T03:04:35.245Z,14.42
2018-05-27T03:07:03.980Z,14.55
2018-05-27T03:09:33.751Z,14.67
2018-05-27T03:12:01.337Z,14.74
2018-05-27T03:14:29.561Z,14.83
2018-05-27T03:16:57.242Z,14.97
2018-05-27T03:19:25.232Z,15.17
2018-05-27T03:21:53.900Z,15.46
2018-05-27T03:24:21.991Z,15.78
2018-05-27T03:26:50.122Z,16.11
2018-05-27T03:29:19.253Z,16.57
2018-05-27T03:31:48.834Z,17.12
2018-05-27T03:34:17.459Z,17.67
2018-05-27T03:36:45.633Z,18.24
2018-05-27T03:39:13.265Z,18.83
2018-05-27T03:41:41.757Z,19.48
2018-05-27T03:44:09.298Z,20.16
2018-05-27T03:46:36.928Z,20.70
2018-05-27T03:49:04.518Z,21.29
2018-05-27T03:51:32.128Z,21.71
2018-05-27T03:54:00.660Z,22.22
2018-05-27T03:56:28.688Z,22.66
2018-05-27T03:58:57.368Z,23.03
2018-05-27T04:01:24.920Z,23.32
2018-05-27T04:04:04.461Z,23.50
2018-05-27T04:06:44.234Z,23.50
2018-05-27T04:09:12.454Z,23.23
2018-05-27T04:11:40.072Z,22.92
2018-05-27T04:14:08.317Z,22.57
2018-05-27T04:16:36.343Z,22.11
2018-05-27T04:19:04.512Z,21.75
2018-05-27T04:21:33.277Z,21.35
2018-05-27T04:24:00.808Z,21.01
2018-05-27T04:26:29.109Z,20.56
2018-05-27T04:28:57.411Z,20.22
2018-05-27T04:31:25.285Z,19.72
2018-05-27T04:33:54.678Z,19.32
2018-05-27T04:36:22.492Z,19.12
2018-05-27T04:38:50.128Z,19.01
2018-05-27T04:41:18.763Z,18.87
2018-05-27T04:43:47.695Z,18.80
2018-05-27T04:46:15.397Z,18.65
2018-05-27T04:48:43.092Z,18.56
2018-05-27T04:51:10.670Z,18.50
2018-05-27T04:53:38.299Z,18.46
2018-05-27T04:56:07.064Z,18.45
2018-05-27T04:58:35.435Z,18.46
2018-05-27T05:01:03.017Z,18.51
2018-05-27T05:03:30.656Z,18.44
2018-05-27T05:05:59.089Z,18.51
2018-05-27T05:08:26.876Z,18.51
2018-05-27T05:10:55.062Z,18.51
2018-05-27T05:13:22.739Z,18.42
2018-05-27T05:15:50.858Z,18.39
2018-05-27T05:18:18.544Z,18.38
2018-05-27T05:20:48.025Z,18.35
2018-05-27T05:23:16.339Z,18.39
2018-05-27T05:25:44.765Z,18.47
2018-05-27T05:28:13.207Z,18.49
2018-05-27T05:30:40.957Z,18.54
2018-05-27T05:33:08.508Z,18.59
2018-05-27T05:35:36.728Z,18.58
2018-05-27T05:38:04.312Z,18.63
2018-05-27T05:40:31.902Z,18.66
2018-05-27T05:42:59.506Z,18.64
2018-05-27T05:45:27.100Z,18.72
2018-05-27T05:47:54.841Z,18.78
2018-05-27T05:50:22.677Z,18.80
2018-05-27T05:52:51.555Z,18.86
2018-05-27T05:55:19.816Z,18.93
2018-05-27T05:57:48.408Z,18.95
2018-05-27T06:00:16.994Z,19.07
2018-05-27T06:02:45.147Z,19.19
2018-05-27T06:05:13.481Z,19.29
2018-05-27T06:07:41.869Z,19.34
2018-05-27T06:10:10.193Z,19.31
2018-05-27T06:12:37.877Z,19.37
2018-05-27T06:15:07.290Z,19.34
2018-05-27T06:17:35.252Z,19.30
2018-05-27T06:20:03.670Z,19.33
2018-05-27T06:22:31.344Z,19.39
2018-05-27T06:24:59.039Z,19.43
2018-05-27T06:27:27.053Z,19.49
2018-05-27T06:29:54.742Z,19.52
2018-05-27T06:32:22.510Z,19.52
2018-05-27T06:34:50.751Z,19.54
2018-05-27T06:37:18.372Z,19.56
2018-05-27T06:39:45.952Z,19.62
2018-05-27T06:42:14.019Z,19.70
2018-05-27T06:44:41.644Z,19.80
2018-05-27T06:47:10.426Z,19.86
2018-05-27T06:49:38.111Z,19.94
2018-05-27T06:52:06.594Z,19.99
2018-05-27T06:54:35.297Z,20.03
2018-05-27T06:57:03.839Z,20.08
2018-05-27T06:59:32.054Z,20.18
2018-05-27T07:01:59.641Z,20.32
2018-05-27T07:04:27.256Z,20.40
2018-05-27T07:06:55.349Z,20.51
2018-05-27T07:09:23.702Z,20.60
2018-05-27T07:11:51.242Z,20.73
2018-05-27T07:14:19.654Z,20.79
2018-05-27T07:16:48.010Z,20.96
2018-05-27T07:19:16.799Z,21.05
2018-05-27T07:21:44.382Z,21.14
2018-05-27T07:24:11.929Z,21.17
2018-05-27T07:26:40.672Z,21.24
2018-05-27T07:29:10.208Z,21.24
2018-05-27T07:31:37.943Z,21.23
2018-05-27T07:34:06.415Z,21.26
2018-05-27T07:36:34.031Z,21.28
2018-05-27T07:39:01.584Z,21.36
2018-05-27T07:41:29.300Z,21.47
2018-05-27T07:43:57.275Z,21.58
2018-05-27T07:46:25.055Z,21.71
2018-05-27T07:48:52.711Z,21.82
2018-05-27T07:51:20.346Z,21.82
2018-05-27T07:53:48.789Z,21.84
2018-05-27T07:56:17.632Z,21.83
2018-05-27T07:58:46.085Z,21.92
2018-05-27T08:01:13.639Z,22.02
2018-05-27T08:03:41.676Z,22.13
2018-05-27T08:06:09.883Z,22.18
2018-05-27T08:08:37.487Z,22.26
2018-05-27T08:11:05.794Z,22.25
2018-05-27T08:13:33.354Z,22.31
2018-05-27T08:16:02.094Z,22.39
2018-05-27T08:18:30.390Z,22.50
2018-05-27T08:20:58.573Z,22.63
2018-05-27T08:23:26.113Z,22.68
2018-05-27T08:25:54.462Z,22.66
2018-05-27T08:28:22.013Z,22.64
2018-05-27T08:30:49.576Z,22.69
2018-05-27T08:33:17.936Z,22.79
2018-05-27T08:35:46.394Z,22.84
2018-05-27T08:38:13.969Z,22.90
2018-05-27T08:40:41.537Z,22.93
2018-05-27T08:43:09.130Z,22.96
2018-05-27T08:45:36.680Z,22.95
2018-05-27T08:48:04.269Z,23.06
2018-05-27T08:50:32.273Z,23.14
2018-05-27T08:52:59.889Z,23.18
2018-05-27T08:55:28.077Z,23.20
2018-05-27T08:57:55.655Z,23.25
2018-05-27T09:00:24.066Z,23.35
2018-05-27T09:02:51.707Z,23.32
2018-05-27T09:05:20.068Z,23.32
2018-05-27T09:07:47.826Z,23.38
2018-05-27T09:10:16.317Z,23.43
2018-05-27T09:12:43.944Z,23.55
2018-05-27T09:15:12.332Z,23.69
2018-05-27T09:17:39.835Z,23.78
2018-05-27T09:20:07.725Z,23.86
2018-05-27T09:22:35.275Z,24.02
2018-05-27T09:25:03.656Z,24.16
2018-05-27T09:27:31.195Z,24.16
2018-05-27T09:32:38.829Z,24.24
2018-05-27T09:35:07.102Z,24.39
2018-05-27T09:37:34.644Z,24.45
2018-05-27T09:40:02.242Z,24.57
2018-05-27T09:42:29.840Z,24.65
2018-05-27T09:44:57.560Z,24.71
2018-05-27T09:47:25.103Z,24.83
2018-05-27T09:49:53.639Z,24.89
2018-05-27T09:52:21.200Z,24.78
2018-05-27T09:54:49.832Z,24.80
2018-05-27T09:57:17.586Z,24.91
2018-05-27T09:59:45.674Z,25.02
2018-05-27T10:02:13.267Z,25.00
2018-05-27T10:04:40.839Z,24.99
2018-05-27T10:07:08.970Z,24.96
2018-05-27T10:09:37.286Z,24.95
2018-05-27T10:12:04.844Z,24.89
2018-05-27T10:14:33.155Z,25.02
2018-05-27T10:17:00.940Z,25.11
2018-05-27T10:19:29.017Z,25.20
2018-05-27T10:21:56.571Z,25.18
2018-05-27T10:24:24.333Z,25.24
2018-05-27T10:26:52.491Z,25.32
2018-05-27T10:29:20.056Z,25.43
2018-05-27T10:31:48.854Z,25.57
2018-05-27T10:34:17.048Z,25.61
2018-05-27T10:36:44.622Z,25.67
2018-05-27T10:39:12.233Z,25.82
2018-05-27T10:41:39.822Z,25.88
2018-05-27T10:44:07.397Z,25.74
2018-05-27T10:46:34.944Z,25.76
2018-05-27T10:49:02.598Z,25.76
2018-05-27T10:51:30.151Z,25.79
2018-05-27T10:53:58.575Z,25.75
2018-05-27T10:56:27.301Z,25.69
2018-05-27T10:58:55.356Z,25.75
2018-05-27T11:01:23.508Z,25.73
2018-05-27T11:03:51.099Z,25.79
2018-05-27T11:06:19.510Z,25.81
2018-05-27T11:08:47.300Z,25.95
2018-05-27T11:11:15.664Z,25.96
2018-05-27T11:13:43.263Z,25.98
2018-05-27T11:16:11.560Z,26.07
2018-05-27T11:18:39.091Z,26.13
2018-05-27T11:21:07.265Z,26.29
2018-05-27T11:23:34.828Z,26.39
2018-05-27T11:26:02.873Z,26.38
2018-05-27T11:28:30.461Z,26.34
2018-05-27T11:30:58.047Z,26.24
2018-05-27T11:33:25.632Z,26.25
2018-05-27T11:35:53.722Z,26.24
2018-05-27T11:38:21.282Z,26.33
2018-05-27T11:40:48.871Z,26.40
2018-05-27T11:43:16.729Z,26.40
2018-05-27T11:45:44.318Z,26.33
2018-05-27T11:48:11.892Z,26.35
2018-05-27T11:50:39.492Z,26.36
2018-05-27T11:53:07.083Z,26.41
2018-05-27T11:55:35.253Z,26.41
2018-05-27T11:58:02.828Z,26.52
2018-05-27T12:00:30.885Z,26.64
2018-05-27T12:02:59.461Z,26.66
2018-05-27T12:05:27.572Z,26.64
2018-05-27T12:07:55.146Z,26.56
2018-05-27T12:10:23.206Z,26.55
2018-05-27T12:12:50.781Z,26.54
2018-05-27T12:15:18.968Z,26.62
2018-05-27T12:17:46.715Z,26.65
2018-05-27T12:20:15.084Z,26.72
2018-05-27T12:22:42.636Z,26.77
2018-05-27T12:25:10.864Z,26.89
2018-05-27T12:27:38.434Z,26.83
2018-05-27T12:30:06.605Z,26.87
2018-05-27T12:32:34.156Z,26.84
2018-05-27T12:35:02.587Z,26.81
2018-05-27T12:37:30.140Z,26.80
2018-05-27T12:39:57.727Z,26.75
2018-05-27T12:42:25.471Z,26.75
2018-05-27T12:44:53.643Z,26.76
2018-05-27T12:47:21.533Z,26.80
2018-05-27T12:49:50.485Z,26.80
2018-05-27T12:52:19.111Z,26.79
2018-05-27T12:54:48.747Z,26.78
2018-05-27T12:57:17.472Z,26.70
2018-05-27T12:59:46.229Z,26.67
2018-05-27T13:02:13.800Z,26.76
2018-05-27T13:04:41.382Z,26.91
2018-05-27T13:07:09.556Z,27.02
2018-05-27T13:09:37.474Z,26.99
2018-05-27T13:12:05.038Z,27.02
2018-05-27T13:14:33.919Z,27.07
2018-05-27T13:17:01.639Z,27.04
2018-05-27T13:19:29.812Z,26.91
2018-05-27T13:21:57.361Z,26.86
2018-05-27T13:24:25.179Z,26.94
2018-05-27T13:26:53.759Z,27.00
2018-05-27T13:29:21.334Z,26.99
2018-05-27T13:31:49.608Z,26.97
2018-05-27T13:34:18.375Z,27.02
2018-05-27T13:36:47.644Z,27.02
2018-05-27T13:39:15.315Z,26.94
2018-05-27T13:41:42.899Z,26.87
2018-05-27T13:44:10.492Z,26.94
2018-05-27T13:46:38.056Z,26.88
2018-05-27T13:49:05.720Z,26.77
2018-05-27T13:51:33.943Z,26.69
2018-05-27T13:54:01.492Z,26.62
2018-05-27T13:56:29.059Z,26.63
2018-05-27T13:58:57.546Z,26.66
2018-05-27T14:01:25.472Z,26.76
2018-05-27T14:03:53.175Z,26.80
2018-05-27T14:06:21.441Z,26.78
2018-05-27T14:08:48.986Z,26.73
2018-05-27T14:11:17.664Z,26.74
2018-05-27T14:13:45.227Z,26.76
2018-05-27T14:16:14.586Z,26.80
2018-05-27T14:18:42.553Z,26.85
2018-05-27T14:21:10.716Z,26.87
2018-05-27T14:23:38.254Z,26.86
2018-05-27T14:26:06.603Z,26.78
2018-05-27T14:28:34.156Z,26.62
2018-05-27T14:31:02.194Z,26.59
2018-05-27T14:33:29.829Z,26.63
2018-05-27T14:35:58.278Z,26.64
2018-05-27T14:38:25.848Z,26.51
2018-05-27T14:40:53.583Z,26.43
2018-05-27T14:43:21.623Z,26.49
2018-05-27T14:45:49.177Z,26.47
2018-05-27T14:48:16.776Z,26.38
2018-05-27T14:50:44.359Z,26.40
2018-05-27T14:53:12.707Z,26.42
2018-05-27T14:55:41.240Z,26.47
2018-05-27T14:58:08.794Z,26.41
2018-05-27T15:00:37.015Z,26.42
2018-05-27T15:03:04.559Z,26.43
2018-05-27T15:05:32.931Z,26.49
2018-05-27T15:08:00.480Z,26.47
2018-05-27T15:10:28.859Z,26.42
2018-05-27T15:12:56.416Z,26.22
2018-05-27T15:15:24.772Z,26.14
2018-05-27T15:17:52.319Z,26.14
2018-05-27T15:20:20.390Z,26.32
2018-05-27T15:22:48.015Z,26.43
2018-05-27T15:25:16.672Z,26.55
2018-05-27T15:27:44.228Z,26.68
2018-05-27T15:30:12.670Z,26.91
2018-05-27T15:32:40.205Z,27.30
2018-05-27T15:35:08.587Z,27.64
2018-05-27T15:37:36.169Z,28.03
2018-05-27T15:40:03.796Z,28.48
2018-05-27T15:42:31.435Z,28.93
2018-05-27T15:44:59.026Z,29.35
2018-05-27T15:47:26.572Z,29.72
2018-05-27T15:49:55.054Z,30.00
2018-05-27T15:52:22.645Z,29.83
2018-05-27T15:54:51.306Z,29.84
2018-05-27T15:57:18.840Z,29.94
2018-05-27T15:59:47.172Z,30.34
2018-05-27T16:02:14.738Z,30.49
2018-05-27T16:04:42.306Z,30.60
2018-05-27T16:07:10.564Z,30.68
2018-05-27T16:09:38.709Z,30.82
2018-05-27T16:12:06.270Z,31.04
2018-05-27T16:14:34.317Z,31.47
2018-05-27T16:17:01.911Z,31.60
2018-05-27T16:19:30.201Z,31.55
2018-05-27T16:21:57.843Z,31.17
2018-05-27T16:24:25.380Z,31.18
2018-05-27T16:26:53.926Z,31.06
2018-05-27T16:29:21.503Z,31.12
2018-05-27T16:31:52.620Z,31.08
2018-05-27T16:34:20.716Z,31.02
2018-05-27T16:36:48.276Z,30.88
2018-05-27T16:39:16.321Z,30.55
2018-05-27T16:41:43.886Z,30.20
2018-05-27T16:44:11.432Z,30.13
2018-05-27T16:46:39.087Z,30.06
2018-05-27T16:49:06.805Z,30.23
2018-05-27T16:51:34.813Z,29.58
2018-05-27T16:54:03.172Z,29.00
2018-05-27T16:56:31.660Z,28.40
2018-05-27T16:59:00.395Z,28.11
2018-05-27T17:01:27.974Z,27.89
2018-05-27T17:03:55.544Z,27.63
2018-05-27T17:06:24.051Z,27.31
2018-05-27T17:08:51.608Z,27.17
2018-05-27T17:11:19.814Z,27.04
2018-05-27T17:13:47.543Z,26.86
2018-05-27T17:16:15.847Z,26.63
2018-05-27T17:18:44.097Z,26.66
2018-05-27T17:21:11.654Z,26.59
2018-05-27T17:23:39.205Z,26.28
2018-05-27T17:26:07.605Z,26.16
2018-05-27T17:28:35.194Z,25.91
2018-05-27T17:31:03.399Z,25.74
2018-05-27T17:33:31.067Z,25.44
2018-05-27T17:35:59.195Z,25.11
2018-05-27T17:38:26.776Z,24.90
2018-05-27T17:40:54.399Z,24.71
2018-05-27T17:43:22.010Z,24.60
2018-05-27T17:45:49.588Z,24.43
2018-05-27T17:48:18.828Z,24.45
2018-05-27T17:50:46.927Z,24.85
2018-05-27T17:53:15.105Z,25.12
2018-05-27T17:55:42.645Z,25.24
2018-05-27T17:58:10.200Z,25.14
2018-05-27T18:00:38.658Z,25.18
2018-05-27T18:03:06.216Z,25.23
2018-05-27T18:05:34.323Z,25.17
2018-05-27T18:08:01.953Z,25.46
2018-05-27T18:10:30.442Z,25.59
2018-05-27T18:12:58.007Z,25.86
2018-05-27T18:15:26.123Z,26.24
2018-05-27T18:17:53.893Z,26.49
2018-05-27T18:20:22.185Z,26.57
2018-05-27T18:22:49.744Z,26.65
2018-05-27T18:25:18.032Z,26.84
2018-05-27T18:27:45.751Z,26.67
2018-05-27T18:30:14.623Z,26.11
2018-05-27T18:32:42.168Z,25.73
2018-05-27T18:35:10.808Z,25.19
2018-05-27T18:37:38.354Z,24.55
2018-05-27T18:40:05.917Z,24.00
2018-05-27T18:42:33.608Z,23.51
2018-05-27T18:45:01.265Z,23.11
2018-05-27T18:47:29.228Z,22.72
2018-05-27T18:49:56.838Z,22.37
2018-05-27T18:52:24.500Z,22.09
2018-05-27T18:54:52.768Z,21.80
2018-05-27T18:57:20.311Z,21.62
2018-05-27T18:59:48.971Z,21.45
2018-05-27T19:02:16.684Z,21.24
2018-05-27T19:04:44.950Z,21.03
2018-05-27T19:07:13.031Z,20.89
2018-05-27T19:09:41.278Z,20.78
2018-05-27T19:12:08.843Z,20.67
2018-05-27T19:14:37.240Z,20.50
2018-05-27T19:17:05.498Z,20.34
2018-05-27T19:19:33.922Z,20.21
2018-05-27T19:22:01.681Z,20.12
2018-05-27T19:24:29.356Z,19.98
2018-05-27T19:26:57.837Z,19.87
2018-05-27T19:29:25.552Z,19.78
2018-05-27T19:31:53.748Z,19.67
2018-05-27T19:34:22.095Z,19.56
2018-05-27T19:36:49.701Z,19.40
2018-05-27T19:39:17.547Z,19.33
2018-05-27T19:41:45.424Z,19.26
2018-05-27T19:44:14.206Z,19.18
2018-05-27T19:46:41.775Z,19.10
2018-05-27T19:49:09.427Z,19.01
2018-05-27T19:51:37.055Z,18.91
2018-05-27T19:54:06.522Z,18.83
2018-05-27T19:56:34.269Z,18.73
2018-05-27T19:59:02.441Z,18.63
2018-05-27T20:01:30.046Z,18.53
2018-05-27T20:03:57.759Z,18.42
2018-05-27T20:06:26.110Z,18.32
2018-05-27T20:08:53.744Z,18.22
2018-05-27T20:11:22.458Z,18.10
2018-05-27T20:13:50.932Z,17.99
2018-05-27T20:16:19.224Z,17.90
2018-05-27T20:18:47.755Z,17.78
2018-05-27T20:21:15.306Z,17.71
2018-05-27T20:23:43.389Z,17.65
2018-05-27T20:26:11.479Z,17.60
2018-05-27T20:28:39.082Z,17.54
2018-05-27T20:31:06.646Z,17.46
2018-05-27T20:33:34.225Z,17.36
2018-05-27T20:36:02.480Z,17.24
2018-05-27T20:38:30.081Z,17.13
2018-05-27T20:40:58.524Z,17.06
2018-05-27T20:43:26.073Z,17.01
2018-05-27T20:45:53.878Z,16.93
2018-05-27T20:48:21.827Z,16.86
2018-05-27T20:50:49.428Z,16.77
2018-05-27T20:53:18.068Z,16.69
2018-05-27T20:55:45.820Z,16.59
2018-05-27T20:58:13.967Z,16.46
2018-05-27T21:00:42.266Z,16.36
2018-05-27T21:03:09.947Z,16.25
2018-05-27T21:05:38.112Z,16.19
2018-05-27T21:08:06.331Z,16.13
2018-05-27T21:10:34.562Z,16.07
2018-05-27T21:13:02.172Z,16.01
2018-05-27T21:15:30.956Z,15.95
2018-05-27T21:17:58.572Z,15.85
2018-05-27T21:20:26.739Z,15.73
2018-05-27T21:22:54.484Z,15.62
2018-05-27T21:25:23.515Z,15.56
2018-05-27T21:27:51.112Z,15.51
2018-05-27T21:30:19.190Z,15.47
2018-05-27T21:32:47.108Z,15.42
2018-05-27T21:35:17.217Z,15.34
2018-05-27T21:37:44.910Z,15.24
2018-05-27T21:40:12.884Z,15.17
2018-05-27T21:42:40.464Z,15.10
2018-05-27T21:45:08.027Z,15.04
2018-05-27T21:47:35.637Z,15.00
2018-05-27T21:50:03.273Z,14.94
2018-05-27T21:52:30.896Z,14.86
2018-05-27T21:54:58.828Z,14.80
2018-05-27T21:57:26.392Z,14.73
2018-05-27T21:59:54.870Z,14.67
2018-05-27T22:02:22.597Z,14.60
2018-05-27T22:04:50.858Z,14.52
2018-05-27T22:07:19.241Z,14.42
2018-05-27T22:09:47.511Z,14.34
2018-05-27T22:12:15.143Z,14.23
2018-05-27T22:14:43.110Z,14.13
2018-05-27T22:17:10.730Z,14.05
2018-05-27T22:19:38.871Z,14.00
2018-05-27T22:22:06.435Z,13.96
2018-05-27T22:24:34.067Z,13.91
2018-05-27T22:27:02.276Z,13.85
2018-05-27T22:29:29.830Z,13.81
2018-05-27T22:31:57.386Z,13.75
2018-05-27T22:34:25.588Z,13.70
2018-05-27T22:36:53.790Z,13.66
2018-05-27T22:39:21.354Z,13.63
2018-05-27T22:41:48.908Z,13.55
2018-05-27T22:44:16.874Z,13.50
2018-05-27T22:46:45.257Z,13.44
2018-05-27T22:49:12.955Z,13.37
2018-05-27T22:51:41.539Z,13.31
2018-05-27T22:54:12.337Z,13.26
2018-05-27T22:56:39.895Z,13.18
2018-05-27T22:59:08.152Z,13.12
2018-05-27T23:01:35.767Z,13.07
2018-05-27T23:04:03.407Z,13.02
2018-05-27T23:06:31.623Z,12.92
2018-05-27T23:08:59.330Z,12.83
2018-05-27T23:11:27.367Z,12.75
2018-05-27T23:13:54.907Z,12.72
2018-05-27T23:16:23.092Z,12.67
2018-05-27T23:18:51.382Z,12.60
2018-05-27T23:21:19.352Z,12.52
2018-05-27T23:23:47.162Z,12.45
2018-05-27T23:26:15.271Z,12.40
2018-05-27T23:28:42.963Z,12.34
2018-05-27T23:31:10.502Z,12.29
2018-05-27T23:33:39.043Z,12.24
2018-05-27T23:36:07.818Z,12.18
2018-05-27T23:38:35.388Z,12.14
2018-05-27T23:41:02.933Z,12.09
2018-05-27T23:43:30.521Z,12.05
2018-05-27T23:45:58.078Z,12.01
2018-05-27T23:48:25.722Z,11.94
2018-05-27T23:50:54.304Z,11.87
2018-05-27T23:53:22.991Z,11.81
2018-05-27T23:55:50.539Z,11.74
2018-05-27T23:58:18.089Z,11.67
